createdAt,value
2018-08-12T00:00:07.358Z,95.7
2018-08-12T00:01:15.991Z,95.61
2018-08-12T00:02:24.636Z,96.08
2018-08-12T00:03:33.549Z,95.89
2018-08-12T00:04:42.196Z,95.7
2018-08-12T00:05:50.841Z,96.08
2018-08-12T00:06:59.474Z,96.17
2018-08-12T00:08:08.119Z,96.08
2018-08-12T00:09:16.764Z,96.94
2018-08-12T00:10:25.414Z,96.94
2018-08-12T00:11:34.052Z,96.89
2018-08-12T00:12:42.695Z,96.89
2018-08-12T00:13:51.341Z,97.08
2018-08-12T00:14:59.990Z,97.08
2018-08-12T00:16:08.914Z,96.89
2018-08-12T00:17:17.826Z,97.47
2018-08-12T00:18:26.467Z,97.27
2018-08-12T00:19:35.380Z,97.08
2018-08-12T00:20:44.283Z,97.08
2018-08-12T00:21:52.925Z,97.56
2018-08-12T00:23:01.565Z,97.27
2018-08-12T00:24:10.205Z,97.27
2018-08-12T00:25:18.861Z,97.47
2018-08-12T00:26:27.499Z,97.37
2018-08-12T00:27:36.139Z,97.66
2018-08-12T00:28:44.777Z,97.94
2018-08-12T00:29:53.424Z,97.47
2018-08-12T00:31:02.067Z,97.08
2018-08-12T00:32:10.711Z,97.27
2018-08-12T00:33:19.619Z,97.47
2018-08-12T00:34:28.271Z,97.75
2018-08-12T00:35:37.174Z,97.27
2018-08-12T00:36:45.825Z,97.18
2018-08-12T00:37:54.469Z,97.56
2018-08-12T00:39:03.371Z,97.94
2018-08-12T00:40:12.282Z,97.66
2018-08-12T00:41:20.927Z,97.47
2018-08-12T00:42:29.571Z,97.75
2018-08-12T00:43:38.211Z,97.66
2018-08-12T00:44:46.861Z,97.94
2018-08-12T00:45:55.499Z,97.75
2018-08-12T00:47:04.148Z,97.47
2018-08-12T00:48:12.788Z,97.56
2018-08-12T00:49:21.428Z,97.27
2018-08-12T00:50:30.072Z,97.66
2018-08-12T00:51:38.715Z,98.32
2018-08-12T00:52:47.351Z,97.94
2018-08-12T00:53:55.997Z,98.42
2018-08-12T00:55:04.638Z,98.03
2018-08-12T00:56:13.286Z,97.66
2018-08-12T00:57:21.928Z,97.75
2018-08-12T00:58:30.575Z,97.85
2018-08-12T00:59:39.218Z,97.66
2018-08-12T01:00:47.858Z,98.03
2018-08-12T01:01:56.510Z,98.71
2018-08-12T01:03:05.152Z,98.9
2018-08-12T01:04:13.799Z,98.8
2018-08-12T01:05:22.445Z,98.32
2018-08-12T01:06:31.091Z,98.42
2018-08-12T01:07:39.734Z,98.42
2018-08-12T01:08:48.376Z,98.23
2018-08-12T01:09:57.024Z,98.32
2018-08-12T01:11:05.663Z,98.32
2018-08-12T01:12:14.311Z,98.9
2018-08-12T01:13:22.953Z,98.99
2018-08-12T01:14:31.601Z,99.37
2018-08-12T01:15:40.243Z,98.52
2018-08-12T01:16:48.888Z,98.23
2018-08-12T01:17:57.527Z,98.56
2018-08-12T01:19:06.167Z,98.18
2018-08-12T01:20:14.808Z,98.75
2018-08-12T01:21:23.452Z,99.04
2018-08-12T01:22:32.354Z,99.04
2018-08-12T01:23:40.991Z,99.04
2018-08-12T01:24:49.640Z,99.32
2018-08-12T01:25:58.280Z,99.42
2018-08-12T01:27:06.923Z,99.99
2018-08-12T01:28:15.562Z,99.52
2018-08-12T01:29:24.215Z,99.8
2018-08-12T01:30:33.112Z,99.42
2018-08-12T01:31:41.757Z,99.99
2018-08-12T01:32:50.395Z,99.99
2018-08-12T01:33:59.042Z,99.99
2018-08-12T01:35:07.688Z,99.99
2018-08-12T01:36:16.332Z,99.99
2018-08-12T01:37:24.979Z,99.71
2018-08-12T01:38:33.614Z,99.71
2018-08-12T01:39:42.257Z,99.8
2018-08-12T01:40:50.900Z,99.8
2018-08-12T01:41:59.549Z,99.99
2018-08-12T01:43:08.189Z,99.99
2018-08-12T01:44:16.833Z,99.99
2018-08-12T01:45:25.738Z,99.99
2018-08-12T01:46:34.386Z,99.99
2018-08-12T01:47:43.023Z,99.99
2018-08-12T01:48:51.668Z,99.99
2018-08-12T01:50:00.311Z,99.99
2018-08-12T01:51:08.957Z,99.99
2018-08-12T01:52:17.598Z,99.99
2018-08-12T01:53:26.241Z,99.99
2018-08-12T01:54:34.887Z,99.99
2018-08-12T01:55:43.526Z,99.99
2018-08-12T01:56:52.176Z,99.99
2018-08-12T01:58:00.822Z,99.99
2018-08-12T01:59:09.462Z,99.99
2018-08-12T02:00:18.104Z,99.99
2018-08-12T02:01:26.748Z,99.9
2018-08-12T02:02:35.393Z,99.99
2018-08-12T02:03:44.035Z,99.99
2018-08-12T02:04:52.933Z,99.99
2018-08-12T02:06:01.592Z,99.99
2018-08-12T02:07:10.232Z,99.99
2018-08-12T02:08:18.880Z,99.99
2018-08-12T02:09:27.513Z,99.99
2018-08-12T02:10:36.157Z,99.99
2018-08-12T02:11:44.804Z,99.99
2018-08-12T02:12:53.450Z,99.99
2018-08-12T02:14:02.097Z,99.8
2018-08-12T02:15:10.737Z,99.99
2018-08-12T02:16:19.383Z,99.9
2018-08-12T02:17:28.285Z,99.99
2018-08-12T02:18:36.937Z,99.99
2018-08-12T02:19:45.570Z,99.99
2018-08-12T02:20:54.219Z,99.99
2018-08-12T02:22:02.860Z,99.99
2018-08-12T02:23:11.773Z,99.99
2018-08-12T02:24:20.407Z,99.99
2018-08-12T02:25:29.050Z,99.99
2018-08-12T02:26:37.694Z,99.99
2018-08-12T02:27:46.341Z,99.99
2018-08-12T02:28:54.981Z,99.99
2018-08-12T02:30:03.620Z,99.99
2018-08-12T02:31:12.531Z,99.99
2018-08-12T02:32:21.433Z,99.99
2018-08-12T02:33:30.092Z,99.99
2018-08-12T02:34:38.991Z,99.99
2018-08-12T02:35:47.640Z,99.99
2018-08-12T02:36:56.275Z,99.99
2018-08-12T02:38:04.934Z,99.99
2018-08-12T02:39:13.573Z,99.99
2018-08-12T02:40:22.227Z,99.99
2018-08-12T02:41:31.127Z,99.99
2018-08-12T02:42:40.052Z,99.99
2018-08-12T02:43:49.224Z,99.99
2018-08-12T02:44:58.145Z,99.99
2018-08-12T02:46:07.326Z,99.99
2018-08-12T02:47:15.982Z,99.99
2018-08-12T02:48:24.633Z,99.99
2018-08-12T02:49:33.547Z,99.99
2018-08-12T02:50:42.991Z,99.99
2018-08-12T02:51:51.628Z,99.99
2018-08-12T02:53:00.282Z,99.99
2018-08-12T02:54:08.926Z,99.99
2018-08-12T02:55:17.586Z,99.99
2018-08-12T02:56:26.216Z,99.66
2018-08-12T02:57:34.868Z,99.95
2018-08-12T02:58:43.516Z,99.99
2018-08-12T02:59:52.425Z,99.99
2018-08-12T03:01:01.060Z,99.95
2018-08-12T03:02:09.973Z,99.99
2018-08-12T03:03:18.617Z,99.75
2018-08-12T03:04:27.523Z,99.66
2018-08-12T03:05:36.431Z,99.75
2018-08-12T03:06:45.072Z,99.75
2018-08-12T03:07:53.718Z,99.61
2018-08-12T03:09:02.365Z,99.85
2018-08-12T03:10:11.319Z,99.9
2018-08-12T03:11:19.916Z,99.99
2018-08-12T03:12:28.561Z,99.99
2018-08-12T03:13:37.472Z,99.99
2018-08-12T03:14:46.111Z,99.95
2018-08-12T03:15:54.757Z,99.95
2018-08-12T03:17:03.666Z,99.85
2018-08-12T03:18:12.847Z,99.71
2018-08-12T03:19:21.485Z,99.99
2018-08-12T03:20:30.393Z,99.85
2018-08-12T03:21:39.571Z,99.85
2018-08-12T03:22:48.487Z,99.75
2018-08-12T03:23:57.128Z,99.27
2018-08-12T03:25:06.042Z,99.66
2018-08-12T03:26:14.682Z,99.75
2018-08-12T03:27:23.591Z,99.75
2018-08-12T03:28:32.239Z,99.66
2018-08-12T03:29:41.148Z,99.75
2018-08-12T03:30:49.804Z,99.85
2018-08-12T03:31:58.707Z,99.99
2018-08-12T03:33:07.626Z,99.75
2018-08-12T03:34:16.530Z,99.85
2018-08-12T03:35:25.436Z,99.99
2018-08-12T03:36:34.075Z,99.99
2018-08-12T03:37:42.986Z,99.99
2018-08-12T03:38:51.627Z,99.99
2018-08-12T03:40:00.270Z,99.99
2018-08-12T03:41:08.908Z,99.99
2018-08-12T03:42:17.557Z,99.99
2018-08-12T03:43:26.195Z,99.99
2018-08-12T03:44:35.104Z,99.99
2018-08-12T03:45:43.747Z,99.99
2018-08-12T03:46:52.386Z,99.99
2018-08-12T03:48:01.291Z,99.99
2018-08-12T03:49:09.936Z,99.99
2018-08-12T03:50:18.580Z,99.99
2018-08-12T03:51:27.219Z,99.99
2018-08-12T03:52:36.126Z,99.99
2018-08-12T03:53:44.769Z,99.99
2018-08-12T03:54:53.414Z,99.99
2018-08-12T03:56:02.055Z,99.99
2018-08-12T03:57:10.700Z,99.99
2018-08-12T03:58:19.340Z,99.99
2018-08-12T03:59:27.985Z,99.99
2018-08-12T04:00:36.626Z,99.99
2018-08-12T04:01:45.269Z,99.99
2018-08-12T04:02:54.172Z,99.99
2018-08-12T04:04:02.814Z,99.99
2018-08-12T04:05:11.466Z,99.99
2018-08-12T04:06:20.104Z,99.99
2018-08-12T04:07:28.746Z,99.99
2018-08-12T04:08:37.383Z,99.99
2018-08-12T04:09:46.035Z,99.99
2018-08-12T04:10:54.674Z,99.99
2018-08-12T04:12:03.319Z,99.99
2018-08-12T04:13:11.952Z,99.99
2018-08-12T04:14:20.610Z,99.99
2018-08-12T04:15:29.255Z,99.99
2018-08-12T04:16:37.898Z,99.99
2018-08-12T04:17:46.532Z,99.99
2018-08-12T04:18:55.194Z,99.99
2018-08-12T04:20:03.839Z,99.99
2018-08-12T04:21:12.468Z,99.99
2018-08-12T04:22:21.116Z,99.99
2018-08-12T04:23:30.014Z,99.99
2018-08-12T04:24:38.659Z,99.99
2018-08-12T04:25:47.298Z,99.99
2018-08-12T04:26:56.483Z,99.99
2018-08-12T04:28:05.115Z,99.99
2018-08-12T04:29:13.764Z,99.99
2018-08-12T04:30:22.406Z,99.99
2018-08-12T04:31:31.057Z,99.99
2018-08-12T04:32:39.692Z,99.99
2018-08-12T04:33:48.336Z,99.99
2018-08-12T04:34:56.976Z,99.99
2018-08-12T04:36:05.629Z,99.99
2018-08-12T04:37:14.531Z,99.61
2018-08-12T04:38:23.172Z,99.18
2018-08-12T04:39:31.811Z,99.32
2018-08-12T04:40:40.452Z,99.04
2018-08-12T04:41:49.099Z,98.75
2018-08-12T04:42:57.741Z,98.37
2018-08-12T04:44:06.392Z,98.37
2018-08-12T04:45:15.021Z,98.75
2018-08-12T04:46:23.673Z,97.61
2018-08-12T04:47:32.311Z,97.8
2018-08-12T04:48:40.968Z,97.61
2018-08-12T04:49:49.602Z,97.99
2018-08-12T04:50:58.255Z,97.99
2018-08-12T04:52:06.894Z,97.99
2018-08-12T04:53:15.805Z,97.61
2018-08-12T04:54:24.436Z,97.89
2018-08-12T04:55:33.085Z,98.08
2018-08-12T04:56:41.733Z,97.89
2018-08-12T04:57:50.378Z,97.8
2018-08-12T04:58:59.284Z,97.71
2018-08-12T05:00:07.918Z,97.71
2018-08-12T05:01:16.830Z,97.99
2018-08-12T05:02:25.476Z,97.61
2018-08-12T05:03:34.112Z,97.22
2018-08-12T05:04:42.768Z,97.13
2018-08-12T05:05:51.405Z,96.66
2018-08-12T05:07:00.051Z,97.03
2018-08-12T05:08:08.683Z,96.66
2018-08-12T05:09:17.335Z,97.03
2018-08-12T05:10:25.975Z,97.08
2018-08-12T05:11:34.622Z,96.89
2018-08-12T05:12:43.521Z,96.7
2018-08-12T05:13:52.168Z,96.8
2018-08-12T05:15:00.811Z,96.22
2018-08-12T05:16:09.456Z,96.22
2018-08-12T05:17:18.102Z,95.36
2018-08-12T05:18:26.742Z,95.36
2018-08-12T05:19:35.384Z,95.27
2018-08-12T05:20:44.023Z,95.08
2018-08-12T05:21:52.673Z,94.55
2018-08-12T05:23:01.306Z,94.31
2018-08-12T05:24:09.955Z,94.46
2018-08-12T05:25:19.122Z,94.55
2018-08-12T05:26:27.771Z,94.07
2018-08-12T05:27:36.405Z,94.27
2018-08-12T05:28:45.051Z,93.79
2018-08-12T05:29:53.690Z,93.6
2018-08-12T05:31:02.343Z,93.6
2018-08-12T05:32:10.989Z,93.31
2018-08-12T05:33:19.628Z,93.41
2018-08-12T05:34:28.270Z,93.21
2018-08-12T05:35:37.174Z,93.36
2018-08-12T05:36:45.828Z,93.07
2018-08-12T05:37:54.467Z,92.97
2018-08-12T05:39:03.117Z,92.79
2018-08-12T05:40:11.750Z,92.21
2018-08-12T05:41:20.403Z,92.16
2018-08-12T05:42:29.042Z,91.78
2018-08-12T05:43:37.689Z,91.49
2018-08-12T05:44:46.323Z,91.39
2018-08-12T05:45:54.979Z,91.49
2018-08-12T05:47:03.618Z,91.11
2018-08-12T05:48:12.269Z,91.39
2018-08-12T05:49:20.904Z,90.82
2018-08-12T05:50:29.552Z,90.82
2018-08-12T05:51:38.200Z,91.02
2018-08-12T05:52:46.846Z,91.02
2018-08-12T05:53:55.491Z,90.63
2018-08-12T05:55:04.126Z,91.02
2018-08-12T05:56:12.781Z,91.11
2018-08-12T05:57:21.688Z,90.82
2018-08-12T05:58:30.340Z,90.34
2018-08-12T05:59:38.977Z,90.53
2018-08-12T06:00:47.620Z,90.53
2018-08-12T06:01:56.267Z,90.77
2018-08-12T06:03:04.917Z,90.53
2018-08-12T06:04:13.820Z,90.44
2018-08-12T06:05:22.741Z,90.48
2018-08-12T06:06:31.381Z,90.2
2018-08-12T06:07:40.030Z,89.81
2018-08-12T06:08:48.704Z,89.24
2018-08-12T06:09:57.317Z,89.05
2018-08-12T06:11:05.959Z,89.34
2018-08-12T06:12:14.600Z,89.05
2018-08-12T06:13:23.250Z,88.48
2018-08-12T06:14:31.896Z,87.52
2018-08-12T06:15:40.559Z,87.71
2018-08-12T06:16:49.184Z,87.14
2018-08-12T06:17:57.832Z,86.61
2018-08-12T06:19:06.741Z,85.75
2018-08-12T06:20:15.386Z,85.55
2018-08-12T06:21:24.028Z,85.36
2018-08-12T06:22:32.677Z,85.08
2018-08-12T06:23:41.320Z,84.79
2018-08-12T06:24:49.967Z,84.02
2018-08-12T06:25:58.611Z,83.73
2018-08-12T06:27:07.264Z,82.87
2018-08-12T06:28:15.912Z,83.3
2018-08-12T06:29:24.561Z,83.11
2018-08-12T06:30:33.470Z,82.43
2018-08-12T06:31:42.110Z,82.73
2018-08-12T06:32:50.755Z,82.82
2018-08-12T06:33:59.411Z,81.86
2018-08-12T06:35:08.047Z,81.86
2018-08-12T06:36:16.688Z,80.94
2018-08-12T06:37:25.337Z,81.57
2018-08-12T06:38:33.980Z,80.81
2018-08-12T06:39:42.892Z,80.47
2018-08-12T06:40:51.839Z,81.13
2018-08-12T06:42:00.487Z,80.76
2018-08-12T06:43:09.132Z,80.94
2018-08-12T06:44:18.045Z,81.23
2018-08-12T06:45:26.694Z,80.85
2018-08-12T06:46:35.338Z,80.47
2018-08-12T06:47:43.980Z,79.99
2018-08-12T06:48:52.624Z,79.51
2018-08-12T06:50:01.535Z,78.36
2018-08-12T06:51:10.183Z,76.44
2018-08-12T06:52:18.827Z,76.06
2018-08-12T06:53:27.467Z,75.62
2018-08-12T06:54:36.118Z,76.1
2018-08-12T06:55:44.762Z,75.52
2018-08-12T06:56:53.670Z,75.81
2018-08-12T06:58:02.307Z,75.52
2018-08-12T06:59:10.964Z,75.04
2018-08-12T07:00:19.662Z,74.76
2018-08-12T07:01:28.254Z,74.22
2018-08-12T07:02:36.956Z,73.9
2018-08-12T07:03:45.811Z,73.83
2018-08-12T07:04:54.461Z,74.02
2018-08-12T07:06:03.112Z,74.12
2018-08-12T07:07:12.021Z,73.35
2018-08-12T07:08:20.658Z,73.55
2018-08-12T07:09:29.316Z,73.35
2018-08-12T07:10:38.490Z,73.16
2018-08-12T07:11:47.141Z,72.39
2018-08-12T07:12:56.307Z,72.53
2018-08-12T07:14:04.956Z,72.53
2018-08-12T07:15:13.599Z,72.63
2018-08-12T07:16:22.515Z,72.33
2018-08-12T07:17:31.150Z,73.39
2018-08-12T07:18:39.803Z,74.35
2018-08-12T07:19:48.710Z,74.83
2018-08-12T07:20:57.365Z,72.33
2018-08-12T07:22:06.012Z,71.86
2018-08-12T07:23:14.656Z,71.57
2018-08-12T07:24:23.300Z,71.28
2018-08-12T07:25:31.943Z,70.9
2018-08-12T07:26:40.596Z,70.84
2018-08-12T07:27:49.500Z,70.84
2018-08-12T07:28:58.150Z,70.26
2018-08-12T07:30:06.784Z,70.64
2018-08-12T07:31:15.440Z,70.55
2018-08-12T07:32:24.081Z,71.12
2018-08-12T07:33:32.733Z,70.64
2018-08-12T07:34:41.630Z,70.2
2018-08-12T07:35:50.285Z,69.53
2018-08-12T07:36:58.929Z,69.34
2018-08-12T07:38:07.841Z,68.57
2018-08-12T07:39:16.480Z,68.76
2018-08-12T07:40:25.128Z,68.57
2018-08-12T07:41:33.779Z,69.24
2018-08-12T07:42:42.429Z,69.24
2018-08-12T07:43:51.077Z,69.27
2018-08-12T07:45:00.239Z,68.21
2018-08-12T07:46:09.155Z,68.6
2018-08-12T07:47:17.795Z,68.21
2018-08-12T07:48:26.451Z,68.21
2018-08-12T07:49:35.360Z,67.25
2018-08-12T07:50:44.011Z,66.33
2018-08-12T07:51:52.661Z,66.52
2018-08-12T07:53:01.586Z,65.37
2018-08-12T07:54:10.223Z,64.98
2018-08-12T07:55:18.871Z,64.43
2018-08-12T07:56:27.517Z,63.57
2018-08-12T07:57:36.169Z,63.02
2018-08-12T07:58:44.812Z,62.16
2018-08-12T07:59:53.457Z,61.61
2018-08-12T08:01:02.100Z,61.04
2018-08-12T08:02:10.746Z,60.65
2018-08-12T08:03:19.398Z,60.39
2018-08-12T08:04:28.312Z,60.1
2018-08-12T08:05:36.960Z,60.3
2018-08-12T08:06:45.602Z,59.81
2018-08-12T08:07:54.258Z,58.95
2018-08-12T08:09:02.912Z,58.65
2018-08-12T08:10:11.829Z,57.82
2018-08-12T08:11:20.995Z,58.78
2018-08-12T08:12:29.663Z,58.59
2018-08-12T08:13:38.296Z,58.49
2018-08-12T08:14:46.942Z,58.78
2018-08-12T08:15:55.845Z,59.94
2018-08-12T08:17:04.501Z,59.36
2018-08-12T08:18:13.148Z,59.55
2018-08-12T08:19:21.801Z,59.45
2018-08-12T08:20:30.450Z,58.11
2018-08-12T08:21:39.092Z,58.69
2018-08-12T08:22:47.739Z,58.69
2018-08-12T08:23:56.390Z,57.94
2018-08-12T08:25:05.567Z,57.85
2018-08-12T08:26:14.739Z,57.85
2018-08-12T08:27:23.386Z,57.17
2018-08-12T08:28:32.036Z,57.27
2018-08-12T08:29:40.692Z,57.97
2018-08-12T08:30:49.337Z,58.81
2018-08-12T08:31:58.310Z,56.52
2018-08-12T08:33:06.636Z,55.92
2018-08-12T08:34:15.291Z,56.62
2018-08-12T08:35:23.941Z,57.2
2018-08-12T08:36:32.585Z,56.62
2018-08-12T08:37:41.238Z,56.91
2018-08-12T08:38:50.155Z,56.04
2018-08-12T08:39:58.808Z,56.79
2018-08-12T08:41:07.456Z,56.3
2018-08-12T08:42:16.371Z,57.39
2018-08-12T08:43:25.016Z,57.1
2018-08-12T08:44:33.670Z,56.33
2018-08-12T08:45:42.321Z,55.66
2018-08-12T08:46:50.974Z,55.46
2018-08-12T08:47:59.878Z,55.27
2018-08-12T08:49:08.531Z,55.18
2018-08-12T08:50:17.447Z,55.18
2018-08-12T08:51:26.092Z,55.85
2018-08-12T08:52:34.735Z,55.46
2018-08-12T08:53:43.384Z,55.85
2018-08-12T08:54:52.034Z,55.85
2018-08-12T08:56:00.724Z,55.76
2018-08-12T08:57:09.325Z,56.43
2018-08-12T08:58:18.247Z,55.68
2018-08-12T08:59:26.899Z,55.68
2018-08-12T09:00:35.546Z,55.88
2018-08-12T09:01:44.192Z,55.46
2018-08-12T09:02:52.854Z,55.66
2018-08-12T09:04:01.513Z,55.49
2018-08-12T09:05:10.164Z,56.16
2018-08-12T09:06:18.811Z,55.88
2018-08-12T09:07:28.001Z,55.68
2018-08-12T09:08:36.837Z,55.59
2018-08-12T09:09:45.299Z,55.68
2018-08-12T09:10:53.941Z,55.59
2018-08-12T09:12:02.600Z,55.59
2018-08-12T09:13:11.249Z,55.68
2018-08-12T09:14:19.902Z,55.59
2018-08-12T09:15:28.553Z,55.01
2018-08-12T09:16:37.197Z,55.49
2018-08-12T09:17:45.846Z,55.81
2018-08-12T09:18:54.496Z,55.9
2018-08-12T09:20:03.413Z,56.2
2018-08-12T09:21:12.057Z,57.16
2018-08-12T09:22:20.707Z,57.16
2018-08-12T09:23:29.357Z,55.9
2018-08-12T09:24:38.011Z,54.75
2018-08-12T09:25:46.658Z,54.17
2018-08-12T09:26:55.311Z,55.33
2018-08-12T09:28:03.958Z,55.33
2018-08-12T09:29:12.616Z,55.23
2018-08-12T09:30:21.262Z,54.65
2018-08-12T09:31:29.914Z,54.36
2018-08-12T09:32:38.563Z,54.27
2018-08-12T09:33:47.209Z,54.39
2018-08-12T09:34:55.861Z,54.58
2018-08-12T09:36:04.512Z,54.39
2018-08-12T09:37:13.163Z,53.71
2018-08-12T09:38:21.810Z,53.81
2018-08-12T09:39:30.464Z,53.91
2018-08-12T09:40:39.374Z,53.61
2018-08-12T09:41:48.026Z,53.33
2018-08-12T09:42:56.704Z,53.52
2018-08-12T09:44:05.667Z,53.13
2018-08-12T09:45:14.573Z,53.35
2018-08-12T09:46:23.226Z,53.06
2018-08-12T09:47:31.876Z,52.87
2018-08-12T09:48:40.527Z,53.25
2018-08-12T09:49:49.182Z,55.38
2018-08-12T09:50:57.827Z,54.22
2018-08-12T09:52:07.015Z,53.74
2018-08-12T09:53:15.925Z,53.55
2018-08-12T09:54:24.579Z,53.64
2018-08-12T09:55:33.221Z,53.25
2018-08-12T09:56:41.879Z,53.55
2018-08-12T09:57:50.785Z,53.77
2018-08-12T09:58:59.710Z,53.77
2018-08-12T10:00:08.355Z,53.38
2018-08-12T10:01:17.009Z,53.19
2018-08-12T10:02:25.653Z,52.99
2018-08-12T10:03:34.573Z,52.7
2018-08-12T10:04:43.222Z,52.02
2018-08-12T10:05:52.138Z,52.89
2018-08-12T10:07:00.784Z,52.22
2018-08-12T10:08:09.431Z,51.86
2018-08-12T10:09:18.082Z,52.34
2018-08-12T10:10:26.733Z,51.86
2018-08-12T10:11:35.387Z,51.18
2018-08-12T10:12:44.298Z,51.47
2018-08-12T10:13:52.956Z,50.98
2018-08-12T10:15:01.594Z,50.89
2018-08-12T10:16:10.252Z,50.89
2018-08-12T10:17:18.900Z,51.08
2018-08-12T10:18:27.556Z,51.01
2018-08-12T10:19:36.197Z,50.82
2018-08-12T10:20:44.859Z,50.14
2018-08-12T10:21:53.769Z,50.33
2018-08-12T10:23:02.426Z,50.24
2018-08-12T10:24:11.329Z,50.43
2018-08-12T10:25:20.244Z,50.24
2018-08-12T10:26:29.164Z,49.95
2018-08-12T10:27:37.817Z,49.95
2018-08-12T10:28:46.469Z,50.24
2018-08-12T10:29:55.118Z,50.43
2018-08-12T10:31:04.043Z,51.4
2018-08-12T10:32:12.685Z,53.43
2018-08-12T10:33:21.347Z,52.08
2018-08-12T10:34:29.988Z,52.27
2018-08-12T10:35:38.645Z,52.27
2018-08-12T10:36:47.562Z,52.56
2018-08-12T10:37:56.221Z,53.53
2018-08-12T10:39:04.863Z,52.08
2018-08-12T10:40:13.519Z,51.4
2018-08-12T10:41:22.172Z,51.1
2018-08-12T10:42:30.828Z,50.92
2018-08-12T10:43:39.477Z,51.2
2018-08-12T10:44:48.123Z,51.2
2018-08-12T10:45:56.773Z,51.3
2018-08-12T10:47:05.420Z,51.88
2018-08-12T10:48:14.079Z,51.78
2018-08-12T10:49:22.725Z,50.92
2018-08-12T10:50:31.383Z,50.94
2018-08-12T10:51:40.293Z,51.32
2018-08-12T10:52:48.953Z,51.42
2018-08-12T10:53:57.601Z,51.9
2018-08-12T10:55:06.255Z,52.2
2018-08-12T10:56:14.904Z,50.94
2018-08-12T10:57:23.824Z,50.84
2018-08-12T10:58:32.478Z,50.35
2018-08-12T10:59:41.126Z,50.48
2018-08-12T11:00:49.768Z,49.97
2018-08-12T11:01:58.426Z,50.19
2018-08-12T11:03:07.083Z,51.06
2018-08-12T11:04:15.738Z,49.9
2018-08-12T11:05:24.927Z,49.41
2018-08-12T11:06:33.569Z,49.8
2018-08-12T11:07:42.227Z,48.74
2018-08-12T11:08:51.138Z,48.25
2018-08-12T11:09:59.800Z,48.08
2018-08-12T11:11:08.442Z,48.66
2018-08-12T11:12:17.109Z,48.66
2018-08-12T11:13:25.748Z,47.98
2018-08-12T11:14:34.411Z,47.98
2018-08-12T11:15:43.052Z,47.89
2018-08-12T11:16:51.703Z,47.79
2018-08-12T11:18:00.355Z,47.89
2018-08-12T11:19:09.015Z,47.79
2018-08-12T11:20:17.692Z,48.47
2018-08-12T11:21:26.325Z,48.27
2018-08-12T11:22:34.975Z,48.18
2018-08-12T11:23:43.624Z,48.76
2018-08-12T11:24:52.286Z,47.6
2018-08-12T11:26:00.932Z,47.6
2018-08-12T11:27:09.596Z,47.6
2018-08-12T11:28:18.247Z,48.27
2018-08-12T11:29:27.189Z,48.76
2018-08-12T11:30:35.837Z,48.18
2018-08-12T11:31:44.754Z,47.6
2018-08-12T11:32:53.397Z,46.92
2018-08-12T11:34:02.058Z,46.75
2018-08-12T11:35:10.707Z,46.55
2018-08-12T11:36:19.632Z,46.45
2018-08-12T11:37:28.540Z,46.65
2018-08-12T11:38:37.199Z,47.33
2018-08-12T11:39:45.858Z,47.33
2018-08-12T11:40:54.513Z,47.13
2018-08-12T11:42:03.168Z,46.84
2018-08-12T11:43:11.820Z,47.23
2018-08-12T11:44:20.471Z,47.13
2018-08-12T11:45:29.114Z,47.13
2018-08-12T11:46:37.778Z,47.02
2018-08-12T11:47:46.680Z,48.1
2018-08-12T11:48:55.335Z,48
2018-08-12T11:50:03.983Z,48.37
2018-08-12T11:51:12.639Z,48
2018-08-12T11:52:21.286Z,47.42
2018-08-12T11:53:29.942Z,47.98
2018-08-12T11:54:38.591Z,47.72
2018-08-12T11:55:47.252Z,47.52
2018-08-12T11:56:55.957Z,47.23
2018-08-12T11:58:04.557Z,47.13
2018-08-12T11:59:13.215Z,46.16
2018-08-12T12:00:21.859Z,45.97
2018-08-12T12:01:30.517Z,46.38
2018-08-12T12:02:39.165Z,45.7
2018-08-12T12:03:47.817Z,46.67
2018-08-12T12:04:56.464Z,47.64
2018-08-12T12:06:05.122Z,46.67
2018-08-12T12:07:13.774Z,46.19
2018-08-12T12:08:22.436Z,45.41
2018-08-12T12:09:31.084Z,45.8
2018-08-12T12:10:39.738Z,45.34
2018-08-12T12:11:48.658Z,45.14
2018-08-12T12:12:57.315Z,45.04
2018-08-12T12:14:05.961Z,45.24
2018-08-12T12:15:14.706Z,45.04
2018-08-12T12:16:23.668Z,45.14
2018-08-12T12:17:32.324Z,44.46
2018-08-12T12:18:40.979Z,44.46
2018-08-12T12:19:49.630Z,45.43
2018-08-12T12:20:58.282Z,44.75
2018-08-12T12:22:06.936Z,45.24
2018-08-12T12:23:15.590Z,46.69
2018-08-12T12:24:24.500Z,46.5
2018-08-12T12:25:33.155Z,46.41
2018-08-12T12:26:41.808Z,46.31
2018-08-12T12:27:50.463Z,46.19
2018-08-12T12:28:59.113Z,46.79
2018-08-12T12:30:07.768Z,46.28
2018-08-12T12:31:16.423Z,46.28
2018-08-12T12:32:25.079Z,47.06
2018-08-12T12:33:33.728Z,48.42
2018-08-12T12:34:42.377Z,47.25
2018-08-12T12:35:51.293Z,46.96
2018-08-12T12:36:59.945Z,46.58
2018-08-12T12:38:08.601Z,46.96
2018-08-12T12:39:17.254Z,47.16
2018-08-12T12:40:25.904Z,47.93
2018-08-12T12:41:34.555Z,47.64
2018-08-12T12:42:43.264Z,46.28
2018-08-12T12:43:52.203Z,46.38
2018-08-12T12:45:00.859Z,46.48
2018-08-12T12:46:09.511Z,46.48
2018-08-12T12:47:18.172Z,44.92
2018-08-12T12:48:26.821Z,45.14
2018-08-12T12:49:35.533Z,44.85
2018-08-12T12:50:44.657Z,45.04
2018-08-12T12:51:53.225Z,44.75
2018-08-12T12:53:01.882Z,45.24
2018-08-12T12:54:10.796Z,45.24
2018-08-12T12:55:19.446Z,45.55
2018-08-12T12:56:28.194Z,44.75
2018-08-12T12:57:36.761Z,45.24
2018-08-12T12:58:45.677Z,45.36
2018-08-12T12:59:54.326Z,45.36
2018-08-12T13:01:02.988Z,45.07
2018-08-12T13:02:11.646Z,45.04
2018-08-12T13:03:20.296Z,44.48
2018-08-12T13:04:28.944Z,44.19
2018-08-12T13:05:37.598Z,45.17
2018-08-12T13:06:46.245Z,46.42
2018-08-12T13:07:55.160Z,45.45
2018-08-12T13:09:03.810Z,45.34
2018-08-12T13:10:12.465Z,45.36
2018-08-12T13:11:21.116Z,45.43
2018-08-12T13:12:29.822Z,45.36
2018-08-12T13:13:38.428Z,45.24
2018-08-12T13:14:47.339Z,45.34
2018-08-12T13:15:55.992Z,46.31
2018-08-12T13:17:04.907Z,46.21
2018-08-12T13:18:13.568Z,46.41
2018-08-12T13:19:22.477Z,46.5
2018-08-12T13:20:31.722Z,45.34
2018-08-12T13:21:40.374Z,45.04
2018-08-12T13:22:49.032Z,44.19
2018-08-12T13:23:57.682Z,44
2018-08-12T13:25:06.454Z,44.41
2018-08-12T13:26:14.992Z,43.92
2018-08-12T13:27:23.910Z,43.63
2018-08-12T13:28:32.832Z,45.18
2018-08-12T13:29:41.482Z,44.21
2018-08-12T13:30:50.133Z,44.09
2018-08-12T13:31:58.786Z,44.29
2018-08-12T13:33:07.507Z,44.09
2018-08-12T13:34:16.479Z,43.92
2018-08-12T13:35:25.130Z,44.38
2018-08-12T13:36:33.778Z,44.41
2018-08-12T13:37:42.435Z,46.15
2018-08-12T13:38:51.357Z,44.79
2018-08-12T13:40:00.012Z,45.36
2018-08-12T13:41:08.936Z,46.33
2018-08-12T13:42:17.595Z,44.68
2018-08-12T13:43:26.252Z,45.26
2018-08-12T13:44:34.907Z,44.78
2018-08-12T13:45:43.816Z,46.23
2018-08-12T13:46:52.472Z,46.33
2018-08-12T13:48:01.125Z,46.62
2018-08-12T13:49:10.106Z,46.42
2018-08-12T13:50:18.696Z,46.42
2018-08-12T13:51:27.341Z,45.26
2018-08-12T13:52:36.001Z,47.01
2018-08-12T13:53:44.654Z,49.41
2018-08-12T13:54:53.314Z,47.38
2018-08-12T13:56:01.963Z,46.31
2018-08-12T13:57:10.617Z,46.31
2018-08-12T13:58:19.267Z,46.5
2018-08-12T13:59:27.932Z,45.34
2018-08-12T14:00:36.576Z,45.53
2018-08-12T14:01:45.272Z,45.53
2018-08-12T14:02:54.278Z,45.53
2018-08-12T14:04:02.941Z,45.14
2018-08-12T14:05:11.591Z,44.75
2018-08-12T14:06:20.238Z,45.17
2018-08-12T14:07:28.891Z,45.17
2018-08-12T14:08:37.538Z,46.23
2018-08-12T14:09:46.201Z,47.59
2018-08-12T14:10:54.847Z,45.45
2018-08-12T14:12:03.507Z,44.87
2018-08-12T14:13:12.151Z,44.19
2018-08-12T14:14:20.811Z,43.63
2018-08-12T14:15:29.463Z,44.31
2018-08-12T14:16:38.121Z,44.29
2018-08-12T14:17:46.762Z,43.54
2018-08-12T14:18:55.424Z,43.73
2018-08-12T14:20:04.075Z,43.63
2018-08-12T14:21:12.732Z,43.54
2018-08-12T14:22:21.370Z,45.18
2018-08-12T14:23:30.025Z,43.24
2018-08-12T14:24:38.944Z,43.15
2018-08-12T14:25:47.597Z,42.56
2018-08-12T14:26:56.256Z,42.85
2018-08-12T14:28:04.903Z,42.85
2018-08-12T14:29:13.563Z,42.85
2018-08-12T14:30:22.469Z,42.95
2018-08-12T14:31:31.134Z,43.44
2018-08-12T14:32:39.777Z,43.63
2018-08-12T14:33:48.432Z,45.17
2018-08-12T14:34:57.081Z,46.15
2018-08-12T14:36:05.745Z,46.23
2018-08-12T14:37:14.393Z,44.97
2018-08-12T14:38:23.050Z,44.58
2018-08-12T14:39:31.700Z,44
2018-08-12T14:40:40.363Z,43.41
2018-08-12T14:41:49.014Z,43.51
2018-08-12T14:42:57.665Z,42.83
2018-08-12T14:44:06.580Z,43.15
2018-08-12T14:45:15.238Z,43.02
2018-08-12T14:46:23.899Z,43.24